Flight Track Log - Related Links

Times and Time Zones

All times are in EDT time to prevent confusion due to time zone crossing. See the CPZ5750 flight status page for this flight to view local times or setup timezone preferences in your user account.


Time Position Orientation Groundspeed Altitude Reporting Facility
EDT Latitude Longitude Course Direction KTS MPH feet Rate Location/Type
Sat 07:35:39 PM 42.7736 -73.8064 281° West 146 168 1,500  Level Boston Center
Sat 07:36:58 PM 42.8333 -73.8669 323° Northwest 235 270 3,400 1,968 Climbing Boston Center
Sat 07:37:44 PM 42.8683 -73.9047 322° Northwest 275 316 5,600 3,113 Climbing Boston Center
Sat 07:38:00 PM 42.8392 -74.3681 283° West  Level FlightAware Approximate
Sat 07:38:44 PM 42.9278 -73.9769 318° Northwest 274 315 8,900  Level Boston Center
Sat 07:39:00 PM 42.8632 -74.5127 283° West  Level FlightAware Approximate
Sat 07:39:44 PM 42.9789 -74.0378 319° Northwest 274 315 10,800  Level Boston Center
Sat 07:40:00 PM 42.8967 -74.6473 281° West  Level FlightAware Approximate
Sat 07:40:44 PM 43.0547 -74.1308 318° Northwest 310 357 13,000  Level Boston Center
Sat 07:41:00 PM 42.9166 -74.7932 281° West  Level FlightAware Approximate
Sat 07:41:44 PM 43.0992 -74.2200 304° West 320 368 15,100  Level Boston Center
Sat 07:42:44 PM 43.1075 -74.3597 275° West 331 381 17,300 1,850 Climbing Boston Center
Sat 07:43:44 PM 43.1136 -74.4767 274° West 341 392 18,800 1,500 Climbing Boston Center
Sat 07:44:44 PM 43.1175 -74.6103 272° West 351 404 20,300 1,500 Climbing Boston Center
Sat 07:45:44 PM 43.1208 -74.7528 272° West 363 418 21,800 1,500 Climbing Boston Center
Sat 07:46:44 PM 43.1264 -74.8981 273° West 374 430 23,300 1,450 Climbing Boston Center
Sat 07:47:44 PM 43.1314 -75.0433 273° West 380 437 24,700 1,300 Climbing Boston Center
Sat 07:48:44 PM 43.1342 -75.1914 272° West 393 452 25,900 1,200 Climbing Boston Center
Sat 07:49:44 PM 43.1383 -75.3625 272° West 400 460 27,100 1,200 Climbing Boston Center
Sat 07:50:44 PM 43.1425 -75.5136 272° West 406 467 28,300 1,050 Climbing Boston Center
Sat 07:51:44 PM 43.1489 -75.6675 273° West 406 467 29,200 1,100 Climbing Boston Center
Sat 07:52:44 PM 43.1506 -75.8242 271° West 406 467 30,500 1,300 Climbing Boston Center
Sat 07:53:44 PM 43.1564 -75.9725 273° West 406 467 31,800 1,100 Climbing Boston Center
Sat 07:54:44 PM 43.1600 -76.1208 272° West 406 467 32,700 918 Climbing Boston Center
Sat 07:57:00 PM 43.1406 -76.4372 265° West 389 448 34,800 888 Climbing Cleveland Center
Sat 07:58:00 PM 43.1289 -76.5833 264° West 389 448 35,600 600 Climbing Cleveland Center
Sat 07:59:00 PM 43.1150 -76.7236 262° West 389 448 36,000 200 Climbing Cleveland Center
Sat 08:00:00 PM 43.1031 -76.8694 264° West 389 448 36,000  Level Cleveland Center
Sat 08:01:00 PM 43.0889 -77.0153 262° West 389 448 36,000  Level Cleveland Center
Sat 08:02:00 PM 43.0764 -77.1581 263° West 389 448 36,000  Level Cleveland Center
Sat 08:03:00 PM 43.0639 -77.3008 263° West 389 448 36,000  Level Cleveland Center
Sat 08:04:00 PM 43.0492 -77.4494 262° West 395 455 36,000  Level Cleveland Center
Sat 08:05:00 PM 43.0364 -77.5950 263° West 390 449 36,000  Level Cleveland Center
Sat 08:06:00 PM 43.0214 -77.7406 262° West 390 449 36,000  Level Cleveland Center
Sat 08:07:00 PM 43.0081 -77.8858 263° West 390 449 36,000  Level Cleveland Center
Sat 08:08:00 PM 42.9931 -78.0456 263° West 390 449 36,000  Level Cleveland Center
Sat 08:09:00 PM 42.9772 -78.1908 262° West 390 449 36,000  Level Cleveland Center
Sat 08:10:00 PM 42.9614 -78.3336 261° West 390 449 36,000  Level Cleveland Center
Sat 08:11:00 PM 42.9475 -78.4842 263° West 390 449 36,000  Level Cleveland Center
Sat 08:12:00 PM 42.9356 -78.6294 264° West 390 449 36,000  Level Cleveland Center
Sat 08:13:00 PM 42.9692 -78.7703 288° West 380 437 36,000  Level Cleveland Center
Sat 08:14:00 PM 43.0047 -78.9139 289° West 393 452 36,000  Level Cleveland Center
Sat 08:15:11 PM 43.0333 -79.0667 284° West 400 460 36,000  Level Toronto Center
Sat 08:16:11 PM 43.0667 -79.2000 289° West 400 460 36,000  Level Toronto Center
Sat 08:17:11 PM 43.1000 -79.3667 285° West 400 460 36,000  Level Toronto Center
Sat 08:18:11 PM 43.1167 -79.5000 280° West 400 460 36,000  Level Toronto Center
Sat 08:19:11 PM 43.1500 -79.6333 289° West 400 460 36,000  Level Toronto Center
Sat 08:20:11 PM 43.1833 -79.8000 285° West 400 460 36,000  Level Toronto Center
Sat 08:21:11 PM 43.2167 -79.9333 289° West 400 460 36,000  Level Toronto Center
Sat 08:22:11 PM 43.2500 -80.0833 287° West 400 460 36,000  Level Toronto Center
Sat 08:23:11 PM 43.2667 -80.2333 279° West 400 460 36,000  Level Toronto Center
Sat 08:24:11 PM 43.3000 -80.3833 287° West 400 460 36,000  Level Toronto Center
Sat 08:25:11 PM 43.3333 -80.5333 287° West 400 460 36,000  Level Toronto Center
Sat 08:26:11 PM 43.3667 -80.6833 287° West 400 460 36,000  Level Toronto Center
Sat 08:27:11 PM 43.3833 -80.8333 279° West 400 460 36,000  Level Toronto Center
Sat 08:28:11 PM 43.4000 -80.9833 279° West 400 460 36,000  Level Toronto Center
Sat 08:29:11 PM 43.4333 -81.1333 287° West 400 460 36,000  Level Toronto Center
Sat 08:30:11 PM 43.4667 -81.2667 289° West 400 460 36,000  Level Toronto Center
Sat 08:31:11 PM 43.5000 -81.4333 285° West 400 460 36,000  Level Toronto Center
Sat 08:32:11 PM 43.5167 -81.5667 280° West 400 460 36,000  Level Toronto Center
Sat 08:33:11 PM 43.5500 -81.7333 285° West 400 460 36,000  Level Toronto Center
Sat 08:34:11 PM 43.5833 -81.8667 289° West 400 460 36,000  Level Toronto Center
Sat 08:35:11 PM 43.6000 -82.0333 278° West 400 460 36,000  Level Toronto Center
Sat 08:36:11 PM 43.6333 -82.1667 289° West 400 460 36,000  Level Toronto Center
Sat 08:37:11 PM 43.6667 -82.3000 289° West 400 460 36,000  Level Toronto Center
Sat 08:38:11 PM 43.6833 -82.4667 278° West 400 460 36,000  Level Toronto Center
Sat 08:39:18 PM 43.7272 -82.6336 290° West 404 465 36,000  Level Minneapolis Center
Sat 08:40:20 PM 43.7522 -82.7822 283° West 403 464 36,000  Level Minneapolis Center
Sat 08:41:11 PM 43.7667 -82.9167 279° West 400 460 36,000  Level Toronto Center
Sat 08:42:11 PM 43.8000 -83.0833 286° West 400 460 36,000  Level Toronto Center
Sat 08:43:25 PM 43.8297 -83.2322 286° West 403 464 36,000  Level Minneapolis Center
Sat 08:44:26 PM 43.8561 -83.3839 284° West 404 465 36,000  Level Minneapolis Center
Sat 08:45:28 PM 43.8844 -83.5644 282° West 404 465 36,000  Level Minneapolis Center
Sat 08:46:30 PM 43.9114 -83.7169 284° West 405 466 36,000  Level Minneapolis Center
Sat 08:47:31 PM 43.9339 -83.8675 282° West 404 465 36,000  Level Minneapolis Center
Sat 08:48:33 PM 43.9603 -84.0183 284° West 403 464 36,000  Level Minneapolis Center
Sat 08:49:34 PM 43.9844 -84.1714 282° West 406 467 36,000  Level Minneapolis Center
Sat 08:50:36 PM 44.0081 -84.3217 282° West 402 463 36,000  Level Minneapolis Center
Sat 08:51:38 PM 44.0347 -84.4742 284° West 406 467 36,000  Level Minneapolis Center
Sat 08:52:39 PM 44.0617 -84.6572 282° West 405 466 36,000  Level Minneapolis Center
Sat 08:53:41 PM 44.0847 -84.8103 282° West 407 468 36,000  Level Minneapolis Center
Sat 08:54:43 PM 44.1097 -84.9636 283° West 407 468 36,000  Level Minneapolis Center
Sat 08:55:44 PM 44.1325 -85.1178 282° West 407 468 36,000  Level Minneapolis Center
Sat 08:56:46 PM 44.1561 -85.2739 282° West 410 472 36,000  Level Minneapolis Center
Sat 08:57:47 PM 44.1792 -85.4289 282° West 411 473 36,000  Level Minneapolis Center
Sat 08:58:49 PM 44.2028 -85.5853 282° West 412 474 36,000  Level Minneapolis Center
Sat 08:59:52 PM 44.2256 -85.7433 281° West 414 476 36,000  Level Minneapolis Center
Sat 09:00:54 PM 44.2528 -85.9322 281° West 414 476 36,000 -49 Level Minneapolis Center
Sat 09:01:55 PM 44.2753 -86.0897 281° West 413 475 35,900  Descending Minneapolis Center
Sat 09:02:57 PM 44.2981 -86.2475 281° West 413 475 36,000 48 Climbing Minneapolis Center
Sat 09:03:59 PM 44.3197 -86.4056 281° West 413 475 36,000 -49 Level Minneapolis Center
Sat 09:05:00 PM 44.3425 -86.5642 281° West 415 478 35,900  Descending Minneapolis Center
Sat 09:06:02 PM 44.3631 -86.7228 280° West 414 476 36,000 49 Climbing Minneapolis Center
Sat 09:07:03 PM 44.3864 -86.8850 281° West 421 484 36,000  Level Minneapolis Center
Sat 09:08:05 PM 44.4089 -87.0475 281° West 425 489 36,000  Level Minneapolis Center
Sat 09:09:07 PM 44.4314 -87.2200 280° West 427 491 36,000  Level Minneapolis Center
Sat 09:10:08 PM 44.4564 -87.4103 280° West 431 496 36,000  Level Minneapolis Center
Sat 09:11:10 PM 44.4781 -87.5775 280° West 435 501 36,000  Level Minneapolis Center
Sat 09:12:12 PM 44.4994 -87.7456 280° West 438 504 36,000  Level Minneapolis Center
Sat 09:13:13 PM 44.5208 -87.9158 280° West 442 509 36,000  Level Minneapolis Center
Sat 09:14:15 PM 44.5414 -88.0883 280° West 444 511 36,000  Level Minneapolis Center
Sat 09:15:16 PM 44.5633 -88.2628 280° West 453 521 36,000  Level Minneapolis Center
Sat 09:16:18 PM 44.5831 -88.4375 279° West 455 524 36,000  Level Minneapolis Center
Sat 09:17:20 PM 44.6067 -88.6392 279° West 451 519 36,000  Level Minneapolis Center
Sat 09:18:21 PM 44.6267 -88.8100 279° West 447 514 36,000  Level Minneapolis Center
Sat 09:19:23 PM 44.6458 -88.9822 279° West 448 516 36,000  Level Minneapolis Center
Sat 09:20:24 PM 44.6647 -89.1533 279° West 445 512 36,000  Level Minneapolis Center
Sat 09:21:26 PM 44.6825 -89.3239 278° West 443 510 36,000  Level Minneapolis Center
Sat 09:22:27 PM 44.7011 -89.4944 279° West 443 510 36,000  Level Minneapolis Center
Sat 09:23:28 PM 44.7192 -89.6644 279° West 441 507 36,000  Level Minneapolis Center
Sat 09:24:30 PM 44.7403 -89.8639 279° West 443 510 36,000  Level Minneapolis Center
Sat 09:25:31 PM 44.7594 -90.0358 279° West 446 513 36,000  Level Minneapolis Center
Sat 09:26:33 PM 44.7833 -90.2028 281° West 437 503 36,000  Level Minneapolis Center
Sat 09:27:34 PM 44.8064 -90.3706 281° West 437 503 36,000 -443 Level Minneapolis Center
Sat 09:28:35 PM 44.8289 -90.5372 281° West 433 498 35,100 -1,574 Descending Minneapolis Center
Sat 09:29:36 PM 44.8500 -90.7008 280° West 431 496 32,800 -2,244 Descending Minneapolis Center
Sat 09:30:38 PM 44.8731 -90.8686 281° West 435 501 30,500 -2,293 Descending Minneapolis Center
Sat 09:31:39 PM 44.8950 -91.0394 280° West 438 504 28,100 -2,311 Descending Minneapolis Center
Sat 09:32:40 PM 44.9158 -91.2081 280° West 440 506 25,800 -2,390 Descending Minneapolis Center
Sat 09:33:42 PM 44.9411 -91.3986 281° West 425 489 23,200 -2,098 Descending Minneapolis Center
Sat 09:34:43 PM 44.9581 -91.5489 279° West 401 461 21,500 -2,016 Descending Minneapolis Center
Sat 09:35:44 PM 44.9772 -91.6992 280° West 392 451 19,100 -2,164 Descending Minneapolis Center
Sat 09:36:45 PM 44.9964 -91.8433 281° West 381 438 17,100 -1,854 Descending Minneapolis Center
Sat 09:37:47 PM 45.0131 -91.9822 280° West 363 418 15,300 -1,756 Descending Minneapolis Center
Sat 09:38:48 PM 45.0292 -92.1164 280° West 349 402 13,500 -1,770 Descending Minneapolis Center
Sat 09:39:49 PM 45.0447 -92.2469 280° West 340 391 11,700 -1,180 Descending Minneapolis Center
Sat 09:40:50 PM 45.0356 -92.3761 264° West 339 390 11,100 -344 Descending Minneapolis Center
Sat 09:41:51 PM 45.0153 -92.5031 257° West 333 383 11,000 -49 Descending Minneapolis Center
Sat 09:42:52 PM 44.9908 -92.6553 257° West 333 383 11,000  Level Minneapolis Center
Sat 09:43:53 PM 44.9706 -92.7814 257° West 332 382 11,000 -146 Level Minneapolis Center
Sat 09:44:55 PM 44.9506 -92.9061 257° West 329 379 10,700 -732 Descending Minneapolis Center
Sat 09:45:56 PM 44.9331 -93.0125 257° West 277 319 9,500 -1,328 Descending Minneapolis Center
Sat 09:46:57 PM 44.9489 -93.1111 283° West 281 323 8,000 -1,623 Descending Minneapolis Center
Sat 09:47:58 PM 44.9931 -93.1981 306° West 276 318 6,200 -1,623 Descending Minneapolis Center
Sat 09:48:59 PM 45.0336 -93.2861 303° West 269 310 4,700 -1,082 Descending Minneapolis Center
Sat 09:50:00 PM 45.0250 -93.3750 262° West 208 239 4,000 -582 Descending Minneapolis Center
Sat 09:51:13 PM 44.9756 -93.3789 183° South 195 224 3,400 -716 Descending Minneapolis Center
Sat 09:52:14 PM 44.9364 -93.3208 134° Southeast 169 194 2,400 -984 Descending Minneapolis Center

Login

Don't have an account? Register now (free) for customized features, flight alerts, and more!